Terminal Aerodrome Forecast
Issued by NWS Corpus Christi, TX

Home | Current Version | Previous Version | Text Only | Print | Product List | Glossary On
Versions: 1 2 3 4 5 6 7 8 9 10 11 12 13 14 15 16 17 18
242
FTUS44 KCRP 232333
TAFVCT
TAF
KVCT 232333Z 2400/2424 15017G24KT P6SM SKC
     FM240100 15012KT P6SM SKC
     FM240700 17005KT 3SM BR SCT007
     FM240900 VRB04KT 1/2SM FG VV003
     FM241500 26005KT 4SM BR BKN005
     FM241600 33012KT P6SM SKC=

USA.gov is the U.S. government's official web portal to all federal, state and local government web resources and services.